Aviation Digital Data Service (ADDS)

Output produced by METARs form (1739 UTC 27 May 2017)
found at http://www.aviationweather.gov/adds/metars/
 
LLBG 271720Z 30005KT CAVOK 30/06 Q1008 NOSIG
TAF LLBG 271702Z 2718/2818 VRB03KT CAVOK 
     BECMG 2721/2723 17004KT 
     BECMG 2805/2807 30010KT TX32/2812Z TN21/2803Z
       
LLET 271650Z 23004KT CAVOK 32/11 Q1007
TAF LLET 271703Z 2718/2818 18005KT CAVOK 
     BECMG 2720/2722 VRB03KT 
     BECMG 2804/2806 01008KT 
     BECMG 2808/2810 02015KT TX35/2812Z TN27/2803Z
       
LLHA 271650Z 30005KT CAVOK 26/17 Q1008
TAF LLHA 271606Z 2718/2818 14004KT CAVOK 
     BECMG 2803/2805 23006KT 8000 FEW020 
     BECMG 2807/2809 30010KT CAVOK TX25/2812Z TN19/2803Z
       
LLIB 271550Z 12005KT 090V160 CAVOK 31/07 Q1009
TAF LLIB 271122Z 2712/2812 15006KT CAVOK 
     BECMG 2714/2716 35004KT 
     BECMG 2803/2805 25007KT 
     TEMPO 2805/2807 16005KT TX32/2713Z TN18/2804Z
       
LLSD 271650Z 36005KT CAVOK 26/18 Q1008
TAF LLSD 271704Z 2718/2818 VRB03KT CAVOK 
     BECMG 2801/2803 21006KT 
     PROB30 2803/2806 5000 BR FEW012 
     BECMG 2807/2809 30010KT TX29/2812Z TN21/2803Z
       
LLBG 271720Z 30005KT CAVOK 30/06 Q1008 NOSIG
TAF LLBG 271702Z 2718/2818 VRB03KT CAVOK 
     BECMG 2721/2723 17004KT 
     BECMG 2805/2807 30010KT TX32/2812Z TN21/2803Z
       
LLET 271650Z 23004KT CAVOK 32/11 Q1007
TAF LLET 271703Z 2718/2818 18005KT CAVOK 
     BECMG 2720/2722 VRB03KT 
     BECMG 2804/2806 01008KT 
     BECMG 2808/2810 02015KT TX35/2812Z TN27/2803Z
       
LLHA 271650Z 30005KT CAVOK 26/17 Q1008
TAF LLHA 271606Z 2718/2818 14004KT CAVOK 
     BECMG 2803/2805 23006KT 8000 FEW020 
     BECMG 2807/2809 30010KT CAVOK TX25/2812Z TN19/2803Z
       
LLIB 271550Z 12005KT 090V160 CAVOK 31/07 Q1009
TAF LLIB 271122Z 2712/2812 15006KT CAVOK 
     BECMG 2714/2716 35004KT 
     BECMG 2803/2805 25007KT 
     TEMPO 2805/2807 16005KT TX32/2713Z TN18/2804Z
       
LLSD 271650Z 36005KT CAVOK 26/18 Q1008
TAF LLSD 271704Z 2718/2818 VRB03KT CAVOK 
     BECMG 2801/2803 21006KT 
     PROB30 2803/2806 5000 BR FEW012 
     BECMG 2807/2809 30010KT TX29/2812Z TN21/2803Z